Impacts TAF Board
For situational awareness. Not to be used for flight planning purposes.
IDs:

KPAE - Everett/Paine Fld, WA, US

Issued at 2104 UTC 08 Aug 2020
Updated at 2155 UTC 08 Aug 2020
Potential Impact None Slight Moderate High
Time2153Z 08/22Z 08/23Z 09/00Z 09/01Z 09/02Z 09/03Z 09/04Z 09/05Z 09/06Z 09/07Z 09/08Z 09/09Z 09/10Z>>
Type OBS PRVL PRVL PRVL PRVL PRVL PRVL PRVL PRVL PRVL PRVL PRVL PRVL PRVL
VIS 10 >6 >6 >6 >6 >6 >6 >6 >6 >6 >6 >6 >6 >6
CIG 55 50 50 50 50 50 50 -- -- -- -- -- -- --
Cover BKN OVC OVC OVC OVC OVC OVC FEW FEW FEW FEW FEW FEW FEW
FltCat VFR VFR VFR VFR VFR VFR VFR VFR VFR VFR VFR VFR VFR VFR
WX -- -- -- -- -- -- -- -- -- -- -- -- -- --
WDir 250 330 330 330 330 330 330 VRB VRB VRB VRB VRB VRB VRB
WSpd 6 10 10 10 10 10 10 4 4 4 4 4 4 4
WGst -- -- -- -- -- -- -- -- -- -- -- -- -- --
Raw TAF
KPAE 082104Z 0821/0918 33010KT P6SM SCT020 OVC050
  FM090400 VRB04KT P6SM FEW250
  FM091200 VRB03KT 6SM BR FEW250


Raw METAR
KPAE 082153Z 25006KT 10SM BKN055 19/12 A3023 RMK AO2 SLP236 T01890117
KPAE 082100Z 33006KT 10SM SCT019 OVC055 17/12 A3023 RMK AO2 T01720122
KPAE 082053Z 32006KT 10SM FEW007 OVC014 17/12 A3023 RMK AO2 SLP236 T01720122 51005
KPAE 082000Z 01006KT 10SM FEW007 OVC014 17/13 A3023 RMK AO2 T01670133
KPAE 081953Z VRB06KT 10SM OVC009 17/13 A3023 RMK AO2 SLP236 T01720133
KPAE 081853Z 01004KT 10SM OVC009 16/13 A3023 RMK AO2 SLP235 T01560128

METAR Board
Radar Display
Forecast Discussion
For situational awareness. Not to be used for flight planning purposes.